sensor_id;sensor_type;location;lat;lon;timestamp;temperature;humidity
33803;DHT22;20110;53.120;5.786;2023-10-31T00:01:20;11.00;99.90
33803;DHT22;20110;53.120;5.786;2023-10-31T00:03:46;11.00;99.90
33803;DHT22;20110;53.120;5.786;2023-10-31T00:06:12;11.00;99.90
33803;DHT22;20110;53.120;5.786;2023-10-31T00:08:38;11.00;99.90
33803;DHT22;20110;53.120;5.786;2023-10-31T00:11:03;11.00;99.90
33803;DHT22;20110;53.120;5.786;2023-10-31T00:13:29;10.90;99.90
33803;DHT22;20110;53.120;5.786;2023-10-31T00:15:55;10.90;99.90
33803;DHT22;20110;53.120;5.786;2023-10-31T00:18:20;10.90;99.90
33803;DHT22;20110;53.120;5.786;2023-10-31T00:20:46;10.90;99.90
33803;DHT22;20110;53.120;5.786;2023-10-31T00:23:12;10.90;99.90
33803;DHT22;20110;53.120;5.786;2023-10-31T00:25:38;10.90;99.90
33803;DHT22;20110;53.120;5.786;2023-10-31T00:28:04;10.90;99.90
33803;DHT22;20110;53.120;5.786;2023-10-31T00:30:29;10.90;99.90
33803;DHT22;20110;53.120;5.786;2023-10-31T00:32:55;11.00;99.90
33803;DHT22;20110;53.120;5.786;2023-10-31T00:35:20;11.10;99.90
33803;DHT22;20110;53.120;5.786;2023-10-31T00:37:46;11.10;99.90
33803;DHT22;20110;53.120;5.786;2023-10-31T00:40:12;11.20;99.90
33803;DHT22;20110;53.120;5.786;2023-10-31T00:42:38;11.20;99.90
33803;DHT22;20110;53.120;5.786;2023-10-31T00:45:06;11.20;99.90
33803;DHT22;20110;53.120;5.786;2023-10-31T00:47:32;11.20;99.90
33803;DHT22;20110;53.120;5.786;2023-10-31T00:49:58;11.20;99.90
33803;DHT22;20110;53.120;5.786;2023-10-31T00:52:24;11.20;99.90
33803;DHT22;20110;53.120;5.786;2023-10-31T00:54:50;11.20;99.90
33803;DHT22;20110;53.120;5.786;2023-10-31T00:57:15;11.20;99.90
33803;DHT22;20110;53.120;5.786;2023-10-31T00:59:41;11.10;99.90
33803;DHT22;20110;53.120;5.786;2023-10-31T01:02:07;11.10;99.90
33803;DHT22;20110;53.120;5.786;2023-10-31T01:04:32;11.10;99.90
33803;DHT22;20110;53.120;5.786;2023-10-31T01:06:58;11.10;99.90
33803;DHT22;20110;53.120;5.786;2023-10-31T01:09:24;11.00;99.90
33803;DHT22;20110;53.120;5.786;2023-10-31T01:11:49;11.00;99.90
33803;DHT22;20110;53.120;5.786;2023-10-31T01:14:15;11.00;99.90
33803;DHT22;20110;53.120;5.786;2023-10-31T01:16:41;10.90;99.90
33803;DHT22;20110;53.120;5.786;2023-10-31T01:19:06;10.80;99.90
33803;DHT22;20110;53.120;5.786;2023-10-31T01:21:32;10.70;99.90
33803;DHT22;20110;53.120;5.786;2023-10-31T01:23:59;10.60;99.90
33803;DHT22;20110;53.120;5.786;2023-10-31T01:26:25;10.70;99.90
33803;DHT22;20110;53.120;5.786;2023-10-31T01:28:51;10.70;99.90
33803;DHT22;20110;53.120;5.786;2023-10-31T01:31:17;10.30;99.90
33803;DHT22;20110;53.120;5.786;2023-10-31T01:33:43;10.30;99.90
33803;DHT22;20110;53.120;5.786;2023-10-31T01:36:09;10.30;99.90
33803;DHT22;20110;53.120;5.786;2023-10-31T01:38:36;10.10;99.90
33803;DHT22;20110;53.120;5.786;2023-10-31T01:41:01;10.40;99.90
33803;DHT22;20110;53.120;5.786;2023-10-31T01:43:31;10.30;99.90
33803;DHT22;20110;53.120;5.786;2023-10-31T01:45:58;9.90;99.90
33803;DHT22;20110;53.120;5.786;2023-10-31T01:48:24;9.70;99.90
33803;DHT22;20110;53.120;5.786;2023-10-31T01:50:51;9.60;99.90
33803;DHT22;20110;53.120;5.786;2023-10-31T01:53:17;9.70;99.90
33803;DHT22;20110;53.120;5.786;2023-10-31T01:55:44;9.60;99.90
33803;DHT22;20110;53.120;5.786;2023-10-31T01:58:11;9.60;99.90
33803;DHT22;20110;53.120;5.786;2023-10-31T02:00:39;9.60;99.90
33803;DHT22;20110;53.120;5.786;2023-10-31T02:03:06;9.70;99.90
33803;DHT22;20110;53.120;5.786;2023-10-31T02:05:33;9.60;99.90
33803;DHT22;20110;53.120;5.786;2023-10-31T02:08:00;9.60;99.90
33803;DHT22;20110;53.120;5.786;2023-10-31T02:10:28;9.50;99.90
33803;DHT22;20110;53.120;5.786;2023-10-31T02:12:54;9.80;99.90
33803;DHT22;20110;53.120;5.786;2023-10-31T02:15:19;9.70;99.90
33803;DHT22;20110;53.120;5.786;2023-10-31T02:17:45;9.60;99.90
33803;DHT22;20110;53.120;5.786;2023-10-31T02:20:11;9.70;99.90
33803;DHT22;20110;53.120;5.786;2023-10-31T02:22:36;9.70;99.90
33803;DHT22;20110;53.120;5.786;2023-10-31T02:25:02;9.60;99.90
33803;DHT22;20110;53.120;5.786;2023-10-31T02:27:28;9.50;99.90
33803;DHT22;20110;53.120;5.786;2023-10-31T02:29:53;9.50;99.90
33803;DHT22;20110;53.120;5.786;2023-10-31T02:32:19;9.60;99.90
33803;DHT22;20110;53.120;5.786;2023-10-31T02:34:45;9.60;99.90
33803;DHT22;20110;53.120;5.786;2023-10-31T02:37:11;9.70;99.90
33803;DHT22;20110;53.120;5.786;2023-10-31T02:39:37;9.90;99.90
33803;DHT22;20110;53.120;5.786;2023-10-31T02:42:03;9.90;99.90
33803;DHT22;20110;53.120;5.786;2023-10-31T02:44:29;9.80;99.90
33803;DHT22;20110;53.120;5.786;2023-10-31T02:46:54;9.80;99.90
33803;DHT22;20110;53.120;5.786;2023-10-31T02:49:20;10.00;99.90
33803;DHT22;20110;53.120;5.786;2023-10-31T02:51:46;10.20;99.90
33803;DHT22;20110;53.120;5.786;2023-10-31T02:54:12;10.10;99.90
33803;DHT22;20110;53.120;5.786;2023-10-31T02:56:38;10.00;99.90
33803;DHT22;20110;53.120;5.786;2023-10-31T02:59:04;10.20;99.90
33803;DHT22;20110;53.120;5.786;2023-10-31T03:01:30;10.30;99.90
33803;DHT22;20110;53.120;5.786;2023-10-31T03:03:56;10.10;99.90
33803;DHT22;20110;53.120;5.786;2023-10-31T03:06:21;10.20;99.90
33803;DHT22;20110;53.120;5.786;2023-10-31T03:08:47;10.20;99.90
33803;DHT22;20110;53.120;5.786;2023-10-31T03:11:23;10.20;99.90
33803;DHT22;20110;53.120;5.786;2023-10-31T03:13:49;10.20;99.90
33803;DHT22;20110;53.120;5.786;2023-10-31T03:16:15;10.60;99.90
33803;DHT22;20110;53.120;5.786;2023-10-31T03:18:41;10.50;99.90
33803;DHT22;20110;53.120;5.786;2023-10-31T03:21:07;10.50;99.90
33803;DHT22;20110;53.120;5.786;2023-10-31T03:23:33;10.60;99.90
33803;DHT22;20110;53.120;5.786;2023-10-31T03:25:59;10.30;99.90
33803;DHT22;20110;53.120;5.786;2023-10-31T03:28:24;10.40;99.90
33803;DHT22;20110;53.120;5.786;2023-10-31T03:30:50;10.30;99.90
33803;DHT22;20110;53.120;5.786;2023-10-31T03:33:16;10.30;99.90
33803;DHT22;20110;53.120;5.786;2023-10-31T03:35:43;10.40;99.90
33803;DHT22;20110;53.120;5.786;2023-10-31T03:38:09;10.50;99.90
33803;DHT22;20110;53.120;5.786;2023-10-31T03:40:34;10.50;99.90
33803;DHT22;20110;53.120;5.786;2023-10-31T03:43:00;10.50;99.90
33803;DHT22;20110;53.120;5.786;2023-10-31T03:45:26;10.70;99.90
33803;DHT22;20110;53.120;5.786;2023-10-31T03:47:51;10.60;99.90
33803;DHT22;20110;53.120;5.786;2023-10-31T03:50:17;10.50;99.90
33803;DHT22;20110;53.120;5.786;2023-10-31T03:52:43;10.30;99.90
33803;DHT22;20110;53.120;5.786;2023-10-31T03:55:08;10.20;99.90
33803;DHT22;20110;53.120;5.786;2023-10-31T03:57:34;10.20;99.90
33803;DHT22;20110;53.120;5.786;2023-10-31T04:00:00;10.20;99.90
33803;DHT22;20110;53.120;5.786;2023-10-31T04:02:25;10.30;99.90
33803;DHT22;20110;53.120;5.786;2023-10-31T04:04:51;10.20;99.90
33803;DHT22;20110;53.120;5.786;2023-10-31T04:07:17;10.10;99.90
33803;DHT22;20110;53.120;5.786;2023-10-31T04:09:42;10.10;99.90
33803;DHT22;20110;53.120;5.786;2023-10-31T04:12:08;10.00;99.90
33803;DHT22;20110;53.120;5.786;2023-10-31T04:14:34;10.10;99.90
33803;DHT22;20110;53.120;5.786;2023-10-31T04:17:00;10.00;99.90
33803;DHT22;20110;53.120;5.786;2023-10-31T04:19:26;10.00;99.90
33803;DHT22;20110;53.120;5.786;2023-10-31T04:21:53;10.20;99.90
33803;DHT22;20110;53.120;5.786;2023-10-31T04:24:19;10.20;99.90
33803;DHT22;20110;53.120;5.786;2023-10-31T04:26:44;10.50;99.90
33803;DHT22;20110;53.120;5.786;2023-10-31T04:29:10;10.70;99.90
33803;DHT22;20110;53.120;5.786;2023-10-31T04:31:36;10.60;99.90
33803;DHT22;20110;53.120;5.786;2023-10-31T04:34:02;10.50;99.90
33803;DHT22;20110;53.120;5.786;2023-10-31T04:36:28;10.40;99.90
33803;DHT22;20110;53.120;5.786;2023-10-31T04:38:53;10.40;99.90
33803;DHT22;20110;53.120;5.786;2023-10-31T04:41:19;10.40;99.90
33803;DHT22;20110;53.120;5.786;2023-10-31T04:43:45;10.50;99.90
33803;DHT22;20110;53.120;5.786;2023-10-31T04:46:11;10.50;99.90
33803;DHT22;20110;53.120;5.786;2023-10-31T04:48:37;10.60;99.90
33803;DHT22;20110;53.120;5.786;2023-10-31T04:51:02;10.90;99.90
33803;DHT22;20110;53.120;5.786;2023-10-31T04:53:28;11.00;99.90
33803;DHT22;20110;53.120;5.786;2023-10-31T04:55:54;10.80;99.90
33803;DHT22;20110;53.120;5.786;2023-10-31T04:58:20;10.80;99.90
33803;DHT22;20110;53.120;5.786;2023-10-31T05:00:46;10.90;99.90
33803;DHT22;20110;53.120;5.786;2023-10-31T05:03:12;11.00;99.90
33803;DHT22;20110;53.120;5.786;2023-10-31T05:05:38;11.00;99.90
33803;DHT22;20110;53.120;5.786;2023-10-31T05:08:04;11.10;99.90
33803;DHT22;20110;53.120;5.786;2023-10-31T05:10:29;11.10;99.90
33803;DHT22;20110;53.120;5.786;2023-10-31T05:12:55;11.10;99.90
33803;DHT22;20110;53.120;5.786;2023-10-31T05:15:22;11.10;99.90
33803;DHT22;20110;53.120;5.786;2023-10-31T05:17:47;11.10;99.90
33803;DHT22;20110;53.120;5.786;2023-10-31T05:20:13;11.10;99.90
33803;DHT22;20110;53.120;5.786;2023-10-31T05:22:40;11.20;99.90
33803;DHT22;20110;53.120;5.786;2023-10-31T05:25:06;11.10;99.90
33803;DHT22;20110;53.120;5.786;2023-10-31T05:27:32;11.10;99.90
33803;DHT22;20110;53.120;5.786;2023-10-31T05:29:57;11.20;99.90
33803;DHT22;20110;53.120;5.786;2023-10-31T05:32:23;11.20;99.90
33803;DHT22;20110;53.120;5.786;2023-10-31T05:34:49;11.20;99.90
33803;DHT22;20110;53.120;5.786;2023-10-31T05:37:14;11.20;99.90
33803;DHT22;20110;53.120;5.786;2023-10-31T05:39:40;11.30;99.90
33803;DHT22;20110;53.120;5.786;2023-10-31T05:42:06;11.20;99.90
33803;DHT22;20110;53.120;5.786;2023-10-31T05:44:31;11.30;99.90
33803;DHT22;20110;53.120;5.786;2023-10-31T05:46:57;11.30;99.90
33803;DHT22;20110;53.120;5.786;2023-10-31T05:49:23;11.30;99.90
33803;DHT22;20110;53.120;5.786;2023-10-31T05:51:52;11.30;99.90
33803;DHT22;20110;53.120;5.786;2023-10-31T05:54:18;11.20;99.90
33803;DHT22;20110;53.120;5.786;2023-10-31T05:56:44;11.30;99.90
33803;DHT22;20110;53.120;5.786;2023-10-31T05:59:13;11.30;99.90
33803;DHT22;20110;53.120;5.786;2023-10-31T06:01:39;11.20;99.90
33803;DHT22;20110;53.120;5.786;2023-10-31T06:04:04;11.30;99.90
33803;DHT22;20110;53.120;5.786;2023-10-31T06:06:32;11.30;99.90
33803;DHT22;20110;53.120;5.786;2023-10-31T06:08:58;11.30;99.90
33803;DHT22;20110;53.120;5.786;2023-10-31T06:11:23;11.40;99.90
33803;DHT22;20110;53.120;5.786;2023-10-31T06:13:49;11.40;99.90
33803;DHT22;20110;53.120;5.786;2023-10-31T06:16:15;11.30;99.90
33803;DHT22;20110;53.120;5.786;2023-10-31T06:18:40;11.30;99.90
33803;DHT22;20110;53.120;5.786;2023-10-31T06:21:06;11.30;99.90
33803;DHT22;20110;53.120;5.786;2023-10-31T06:23:35;11.30;99.90
33803;DHT22;20110;53.120;5.786;2023-10-31T06:26:02;11.30;99.90
33803;DHT22;20110;53.120;5.786;2023-10-31T06:28:27;11.30;99.90
33803;DHT22;20110;53.120;5.786;2023-10-31T06:30:53;11.20;99.90
33803;DHT22;20110;53.120;5.786;2023-10-31T06:33:19;11.20;99.90
33803;DHT22;20110;53.120;5.786;2023-10-31T06:35:44;11.20;99.90
33803;DHT22;20110;53.120;5.786;2023-10-31T06:38:10;11.20;99.90
33803;DHT22;20110;53.120;5.786;2023-10-31T06:40:36;11.10;99.90
33803;DHT22;20110;53.120;5.786;2023-10-31T06:43:02;11.00;99.90
33803;DHT22;20110;53.120;5.786;2023-10-31T06:45:28;11.00;99.90
33803;DHT22;20110;53.120;5.786;2023-10-31T06:47:53;11.00;99.90
33803;DHT22;20110;53.120;5.786;2023-10-31T06:50:19;11.00;99.90
33803;DHT22;20110;53.120;5.786;2023-10-31T06:52:45;10.90;99.90
33803;DHT22;20110;53.120;5.786;2023-10-31T06:55:10;10.90;99.90
33803;DHT22;20110;53.120;5.786;2023-10-31T06:57:36;10.90;99.90
33803;DHT22;20110;53.120;5.786;2023-10-31T07:00:03;10.90;99.90
33803;DHT22;20110;53.120;5.786;2023-10-31T07:02:29;11.00;99.90
33803;DHT22;20110;53.120;5.786;2023-10-31T07:04:55;11.00;99.90
33803;DHT22;20110;53.120;5.786;2023-10-31T07:07:20;11.00;99.90
33803;DHT22;20110;53.120;5.786;2023-10-31T07:09:46;11.10;99.90
33803;DHT22;20110;53.120;5.786;2023-10-31T07:12:12;11.10;99.90
33803;DHT22;20110;53.120;5.786;2023-10-31T07:14:37;11.20;99.90
33803;DHT22;20110;53.120;5.786;2023-10-31T07:17:03;11.20;99.90
33803;DHT22;20110;53.120;5.786;2023-10-31T07:19:29;11.20;99.90
33803;DHT22;20110;53.120;5.786;2023-10-31T07:21:54;11.30;99.90
33803;DHT22;20110;53.120;5.786;2023-10-31T07:24:20;11.30;99.90
33803;DHT22;20110;53.120;5.786;2023-10-31T07:26:46;11.30;99.90
33803;DHT22;20110;53.120;5.786;2023-10-31T07:29:11;11.30;99.90
33803;DHT22;20110;53.120;5.786;2023-10-31T07:31:37;11.30;99.90
33803;DHT22;20110;53.120;5.786;2023-10-31T07:34:04;11.40;99.90
33803;DHT22;20110;53.120;5.786;2023-10-31T07:36:30;11.50;99.90
33803;DHT22;20110;53.120;5.786;2023-10-31T07:39:00;11.50;99.90
33803;DHT22;20110;53.120;5.786;2023-10-31T07:41:26;11.50;99.90
33803;DHT22;20110;53.120;5.786;2023-10-31T07:43:52;11.50;99.90
33803;DHT22;20110;53.120;5.786;2023-10-31T07:46:17;11.50;99.90
33803;DHT22;20110;53.120;5.786;2023-10-31T07:48:44;11.60;99.90
33803;DHT22;20110;53.120;5.786;2023-10-31T07:51:09;11.50;99.90
33803;DHT22;20110;53.120;5.786;2023-10-31T07:53:35;11.50;99.90
33803;DHT22;20110;53.120;5.786;2023-10-31T07:56:01;11.60;99.90
33803;DHT22;20110;53.120;5.786;2023-10-31T07:58:27;11.50;99.90
33803;DHT22;20110;53.120;5.786;2023-10-31T08:00:52;11.70;99.90
33803;DHT22;20110;53.120;5.786;2023-10-31T08:03:18;11.70;99.90
33803;DHT22;20110;53.120;5.786;2023-10-31T08:05:44;11.70;99.90
33803;DHT22;20110;53.120;5.786;2023-10-31T08:08:09;11.70;99.90
33803;DHT22;20110;53.120;5.786;2023-10-31T08:10:35;11.70;99.90
33803;DHT22;20110;53.120;5.786;2023-10-31T08:13:01;11.80;99.90
33803;DHT22;20110;53.120;5.786;2023-10-31T08:15:26;11.80;99.90
33803;DHT22;20110;53.120;5.786;2023-10-31T08:17:52;11.90;99.90
33803;DHT22;20110;53.120;5.786;2023-10-31T08:20:17;12.00;99.90
33803;DHT22;20110;53.120;5.786;2023-10-31T08:22:44;12.00;99.90
33803;DHT22;20110;53.120;5.786;2023-10-31T08:25:11;11.90;99.90
33803;DHT22;20110;53.120;5.786;2023-10-31T08:27:37;11.70;99.90
33803;DHT22;20110;53.120;5.786;2023-10-31T08:30:03;11.70;99.90
33803;DHT22;20110;53.120;5.786;2023-10-31T08:32:29;11.60;99.90
33803;DHT22;20110;53.120;5.786;2023-10-31T08:34:55;11.70;99.90
33803;DHT22;20110;53.120;5.786;2023-10-31T08:37:21;11.60;99.90
33803;DHT22;20110;53.120;5.786;2023-10-31T08:39:47;11.70;99.90
33803;DHT22;20110;53.120;5.786;2023-10-31T08:42:13;11.70;99.90
33803;DHT22;20110;53.120;5.786;2023-10-31T08:44:39;11.70;99.90
33803;DHT22;20110;53.120;5.786;2023-10-31T08:47:05;11.80;99.90
33803;DHT22;20110;53.120;5.786;2023-10-31T08:49:32;11.90;99.90
33803;DHT22;20110;53.120;5.786;2023-10-31T08:51:57;12.10;99.90
33803;DHT22;20110;53.120;5.786;2023-10-31T08:54:23;12.10;99.90
33803;DHT22;20110;53.120;5.786;2023-10-31T08:56:49;12.10;99.90
33803;DHT22;20110;53.120;5.786;2023-10-31T08:59:15;12.10;99.90
33803;DHT22;20110;53.120;5.786;2023-10-31T09:01:41;12.00;99.90
33803;DHT22;20110;53.120;5.786;2023-10-31T09:04:07;12.10;99.90
33803;DHT22;20110;53.120;5.786;2023-10-31T09:06:32;12.10;99.90
33803;DHT22;20110;53.120;5.786;2023-10-31T09:08:58;12.10;99.90
33803;DHT22;20110;53.120;5.786;2023-10-31T09:11:24;12.00;99.90
33803;DHT22;20110;53.120;5.786;2023-10-31T09:13:50;12.00;99.90
33803;DHT22;20110;53.120;5.786;2023-10-31T09:16:15;11.90;99.90
33803;DHT22;20110;53.120;5.786;2023-10-31T09:18:41;11.90;99.90
33803;DHT22;20110;53.120;5.786;2023-10-31T09:21:08;11.90;99.90
33803;DHT22;20110;53.120;5.786;2023-10-31T09:23:34;11.90;99.90
33803;DHT22;20110;53.120;5.786;2023-10-31T09:26:01;11.90;99.90
33803;DHT22;20110;53.120;5.786;2023-10-31T09:28:27;11.90;99.90
33803;DHT22;20110;53.120;5.786;2023-10-31T09:30:53;11.90;99.90
33803;DHT22;20110;53.120;5.786;2023-10-31T09:33:19;11.90;99.90
33803;DHT22;20110;53.120;5.786;2023-10-31T09:35:44;12.00;99.90
33803;DHT22;20110;53.120;5.786;2023-10-31T09:38:10;12.00;99.90
33803;DHT22;20110;53.120;5.786;2023-10-31T09:40:39;12.00;99.90
33803;DHT22;20110;53.120;5.786;2023-10-31T09:43:06;12.10;99.90
33803;DHT22;20110;53.120;5.786;2023-10-31T09:45:31;12.10;99.90
33803;DHT22;20110;53.120;5.786;2023-10-31T09:47:57;12.30;99.90
33803;DHT22;20110;53.120;5.786;2023-10-31T09:50:26;12.40;99.90
33803;DHT22;20110;53.120;5.786;2023-10-31T09:52:52;12.30;99.90
33803;DHT22;20110;53.120;5.786;2023-10-31T09:55:18;12.30;99.90
33803;DHT22;20110;53.120;5.786;2023-10-31T09:57:44;12.40;99.90
33803;DHT22;20110;53.120;5.786;2023-10-31T10:00:10;12.30;99.90
33803;DHT22;20110;53.120;5.786;2023-10-31T10:02:37;12.40;99.90
33803;DHT22;20110;53.120;5.786;2023-10-31T10:05:03;12.30;99.90
33803;DHT22;20110;53.120;5.786;2023-10-31T10:07:29;12.30;99.90
33803;DHT22;20110;53.120;5.786;2023-10-31T10:09:55;12.30;99.90
33803;DHT22;20110;53.120;5.786;2023-10-31T10:12:21;12.40;99.90
33803;DHT22;20110;53.120;5.786;2023-10-31T10:14:47;12.50;99.90
33803;DHT22;20110;53.120;5.786;2023-10-31T10:17:23;12.50;99.90
33803;DHT22;20110;53.120;5.786;2023-10-31T10:20:09;12.50;99.90
33803;DHT22;20110;53.120;5.786;2023-10-31T10:22:39;12.50;99.90
33803;DHT22;20110;53.120;5.786;2023-10-31T10:25:07;12.40;99.90
33803;DHT22;20110;53.120;5.786;2023-10-31T10:27:34;12.40;99.90
33803;DHT22;20110;53.120;5.786;2023-10-31T10:30:01;12.40;99.90
33803;DHT22;20110;53.120;5.786;2023-10-31T10:32:28;12.50;99.90
33803;DHT22;20110;53.120;5.786;2023-10-31T10:34:54;12.40;99.90
33803;DHT22;20110;53.120;5.786;2023-10-31T10:37:20;12.40;99.90
33803;DHT22;20110;53.120;5.786;2023-10-31T10:39:47;12.50;99.90
33803;DHT22;20110;53.120;5.786;2023-10-31T10:42:17;12.60;99.90
33803;DHT22;20110;53.120;5.786;2023-10-31T10:44:46;12.30;99.90
33803;DHT22;20110;53.120;5.786;2023-10-31T10:47:14;12.40;99.90
33803;DHT22;20110;53.120;5.786;2023-10-31T10:49:41;12.40;99.90
33803;DHT22;20110;53.120;5.786;2023-10-31T10:52:12;12.40;99.90
33803;DHT22;20110;53.120;5.786;2023-10-31T10:57:18;12.60;99.90
33803;DHT22;20110;53.120;5.786;2023-10-31T10:59:54;12.70;99.90
33803;DHT22;20110;53.120;5.786;2023-10-31T11:02:22;12.90;99.90
33803;DHT22;20110;53.120;5.786;2023-10-31T11:04:49;12.70;99.90
33803;DHT22;20110;53.120;5.786;2023-10-31T11:07:15;12.60;99.90
33803;DHT22;20110;53.120;5.786;2023-10-31T11:09:42;12.60;99.90
33803;DHT22;20110;53.120;5.786;2023-10-31T11:12:11;12.70;99.90
33803;DHT22;20110;53.120;5.786;2023-10-31T11:14:38;12.60;99.90
33803;DHT22;20110;53.120;5.786;2023-10-31T11:17:06;12.60;99.90
33803;DHT22;20110;53.120;5.786;2023-10-31T11:19:40;12.60;99.90
33803;DHT22;20110;53.120;5.786;2023-10-31T11:22:06;12.50;99.90
33803;DHT22;20110;53.120;5.786;2023-10-31T11:24:32;12.70;99.90
33803;DHT22;20110;53.120;5.786;2023-10-31T11:27:02;12.80;99.90
33803;DHT22;20110;53.120;5.786;2023-10-31T11:29:32;12.80;99.90
33803;DHT22;20110;53.120;5.786;2023-10-31T11:32:00;12.60;99.90
33803;DHT22;20110;53.120;5.786;2023-10-31T11:34:26;12.40;99.90
33803;DHT22;20110;53.120;5.786;2023-10-31T11:36:52;12.30;99.90
33803;DHT22;20110;53.120;5.786;2023-10-31T11:39:19;12.30;99.90
33803;DHT22;20110;53.120;5.786;2023-10-31T11:41:54;12.30;99.90
33803;DHT22;20110;53.120;5.786;2023-10-31T11:44:26;12.40;99.90
33803;DHT22;20110;53.120;5.786;2023-10-31T11:46:53;12.40;99.90
33803;DHT22;20110;53.120;5.786;2023-10-31T11:52:19;12.60;99.90
33803;DHT22;20110;53.120;5.786;2023-10-31T11:54:44;12.80;99.90
33803;DHT22;20110;53.120;5.786;2023-10-31T11:57:10;13.00;99.90
33803;DHT22;20110;53.120;5.786;2023-10-31T11:59:39;13.30;99.90
33803;DHT22;20110;53.120;5.786;2023-10-31T12:02:14;13.30;99.90
33803;DHT22;20110;53.120;5.786;2023-10-31T12:04:42;13.10;99.90
33803;DHT22;20110;53.120;5.786;2023-10-31T12:07:08;13.20;99.90
33803;DHT22;20110;53.120;5.786;2023-10-31T12:09:45;13.20;99.90
33803;DHT22;20110;53.120;5.786;2023-10-31T12:12:11;13.30;99.90
33803;DHT22;20110;53.120;5.786;2023-10-31T12:14:37;13.40;99.90
33803;DHT22;20110;53.120;5.786;2023-10-31T12:17:07;13.40;99.90
33803;DHT22;20110;53.120;5.786;2023-10-31T12:19:35;13.10;99.90
33803;DHT22;20110;53.120;5.786;2023-10-31T12:22:01;13.10;99.90
33803;DHT22;20110;53.120;5.786;2023-10-31T12:24:37;13.10;99.90
33803;DHT22;20110;53.120;5.786;2023-10-31T12:27:02;13.00;99.90
33803;DHT22;20110;53.120;5.786;2023-10-31T12:29:28;13.00;99.90
33803;DHT22;20110;53.120;5.786;2023-10-31T12:31:54;13.10;99.90
33803;DHT22;20110;53.120;5.786;2023-10-31T12:34:23;13.40;99.90
33803;DHT22;20110;53.120;5.786;2023-10-31T12:36:50;13.70;99.90
33803;DHT22;20110;53.120;5.786;2023-10-31T12:39:21;13.90;99.90
33803;DHT22;20110;53.120;5.786;2023-10-31T12:41:48;13.90;99.90
33803;DHT22;20110;53.120;5.786;2023-10-31T12:44:15;13.90;99.90
33803;DHT22;20110;53.120;5.786;2023-10-31T12:46:48;13.80;99.90
33803;DHT22;20110;53.120;5.786;2023-10-31T12:49:17;13.80;99.90
33803;DHT22;20110;53.120;5.786;2023-10-31T12:52:00;13.70;99.90
33803;DHT22;20110;53.120;5.786;2023-10-31T12:54:28;13.60;99.90
33803;DHT22;20110;53.120;5.786;2023-10-31T12:57:07;13.60;99.90
33803;DHT22;20110;53.120;5.786;2023-10-31T12:59:34;13.70;99.90
33803;DHT22;20110;53.120;5.786;2023-10-31T13:02:01;13.80;99.90
33803;DHT22;20110;53.120;5.786;2023-10-31T13:04:29;14.00;99.90
33803;DHT22;20110;53.120;5.786;2023-10-31T13:09:22;14.00;99.90
33803;DHT22;20110;53.120;5.786;2023-10-31T13:11:47;14.00;99.90
33803;DHT22;20110;53.120;5.786;2023-10-31T13:14:14;14.30;99.90
33803;DHT22;20110;53.120;5.786;2023-10-31T13:16:39;14.60;99.90
33803;DHT22;20110;53.120;5.786;2023-10-31T13:19:05;14.60;99.90
33803;DHT22;20110;53.120;5.786;2023-10-31T13:21:31;14.60;99.90
33803;DHT22;20110;53.120;5.786;2023-10-31T13:23:56;14.80;99.90
33803;DHT22;20110;53.120;5.786;2023-10-31T13:26:22;14.70;99.90
33803;DHT22;20110;53.120;5.786;2023-10-31T13:28:48;14.90;99.90
33803;DHT22;20110;53.120;5.786;2023-10-31T13:31:13;14.70;99.90
33803;DHT22;20110;53.120;5.786;2023-10-31T13:33:39;14.50;99.90
33803;DHT22;20110;53.120;5.786;2023-10-31T13:36:05;14.10;99.90
33803;DHT22;20110;53.120;5.786;2023-10-31T13:38:31;14.00;99.90
33803;DHT22;20110;53.120;5.786;2023-10-31T13:40:57;13.80;99.90
33803;DHT22;20110;53.120;5.786;2023-10-31T13:43:23;13.60;99.90
33803;DHT22;20110;53.120;5.786;2023-10-31T13:45:49;13.50;99.90
33803;DHT22;20110;53.120;5.786;2023-10-31T13:48:15;13.40;99.90
33803;DHT22;20110;53.120;5.786;2023-10-31T13:50:40;13.30;99.90
33803;DHT22;20110;53.120;5.786;2023-10-31T13:53:07;13.20;99.90
33803;DHT22;20110;53.120;5.786;2023-10-31T13:55:33;13.20;99.90
33803;DHT22;20110;53.120;5.786;2023-10-31T13:57:58;13.10;99.90
33803;DHT22;20110;53.120;5.786;2023-10-31T14:00:24;12.90;99.90
33803;DHT22;20110;53.120;5.786;2023-10-31T14:02:50;13.00;99.90
33803;DHT22;20110;53.120;5.786;2023-10-31T14:05:15;12.90;99.90
33803;DHT22;20110;53.120;5.786;2023-10-31T14:07:41;13.00;99.90
33803;DHT22;20110;53.120;5.786;2023-10-31T14:10:07;13.10;99.90
33803;DHT22;20110;53.120;5.786;2023-10-31T14:12:33;13.00;99.90
33803;DHT22;20110;53.120;5.786;2023-10-31T14:14:59;13.00;99.90
33803;DHT22;20110;53.120;5.786;2023-10-31T14:17:24;12.90;99.90
33803;DHT22;20110;53.120;5.786;2023-10-31T14:19:50;12.90;99.90
33803;DHT22;20110;53.120;5.786;2023-10-31T14:22:16;12.80;99.90
33803;DHT22;20110;53.120;5.786;2023-10-31T14:24:41;12.80;99.90
33803;DHT22;20110;53.120;5.786;2023-10-31T14:27:07;12.80;99.90
33803;DHT22;20110;53.120;5.786;2023-10-31T14:29:33;12.70;99.90
33803;DHT22;20110;53.120;5.786;2023-10-31T14:32:09;12.60;99.90
33803;DHT22;20110;53.120;5.786;2023-10-31T14:34:35;12.60;99.90
33803;DHT22;20110;53.120;5.786;2023-10-31T14:37:01;12.60;99.90
33803;DHT22;20110;53.120;5.786;2023-10-31T14:39:27;12.60;99.90
33803;DHT22;20110;53.120;5.786;2023-10-31T14:41:52;12.50;99.90
33803;DHT22;20110;53.120;5.786;2023-10-31T14:44:18;12.60;99.90
33803;DHT22;20110;53.120;5.786;2023-10-31T14:46:44;12.60;99.90
33803;DHT22;20110;53.120;5.786;2023-10-31T14:49:09;12.60;99.90
33803;DHT22;20110;53.120;5.786;2023-10-31T14:51:36;12.60;99.90
33803;DHT22;20110;53.120;5.786;2023-10-31T14:54:01;12.60;99.90
33803;DHT22;20110;53.120;5.786;2023-10-31T14:56:27;12.60;99.90
33803;DHT22;20110;53.120;5.786;2023-10-31T14:58:54;12.60;99.90
33803;DHT22;20110;53.120;5.786;2023-10-31T15:01:20;12.60;99.90
33803;DHT22;20110;53.120;5.786;2023-10-31T15:03:46;12.60;99.90
33803;DHT22;20110;53.120;5.786;2023-10-31T15:06:12;12.70;99.90
33803;DHT22;20110;53.120;5.786;2023-10-31T15:08:40;12.70;99.90
33803;DHT22;20110;53.120;5.786;2023-10-31T15:11:06;12.70;99.90
33803;DHT22;20110;53.120;5.786;2023-10-31T15:13:31;12.60;99.90
33803;DHT22;20110;53.120;5.786;2023-10-31T15:15:58;12.60;99.90
33803;DHT22;20110;53.120;5.786;2023-10-31T15:18:23;12.70;99.90
33803;DHT22;20110;53.120;5.786;2023-10-31T15:20:49;12.70;99.90
33803;DHT22;20110;53.120;5.786;2023-10-31T15:23:15;12.70;99.90
33803;DHT22;20110;53.120;5.786;2023-10-31T15:25:41;12.60;99.90
33803;DHT22;20110;53.120;5.786;2023-10-31T15:28:07;12.50;99.90
33803;DHT22;20110;53.120;5.786;2023-10-31T15:30:32;12.40;99.90
33803;DHT22;20110;53.120;5.786;2023-10-31T15:32:58;12.30;99.90
33803;DHT22;20110;53.120;5.786;2023-10-31T15:35:24;12.20;99.90